Wednesday, October 18, 2017, 3:28 AM EDT
Back to Local

KNEL, Lakehurst Naval Air Station

Location: Lakehurst, NJ, United States Lat: 40.033
Local Time: 3:28 AM EDT ( 7:28 GMT) Lon: -74.317
Time Zone: US/Eastern Elev: 101 ft

Show me the last for .
Show Coded

Time T Td Feel RH Dir Speed Gust Alt SLP Vis Weather Sky Remarks
2017-10-18 03:00 37 36 - 95 - Calm - 30.30 30.30 10 CLR None
2017-10-18 02:00 35 34 - 95 - Calm - 30.31 30.30 10 CLR 6-hr Min Temp (2am): 35.1°F
6-hr Max Temp (2am): 48.0°F
2017-10-18 01:00 36 35 - 96 - Calm - 30.31 30.30 10 CLR 24-hr Min Temp (1am): 36.0°F
24-hr Max Temp (1am): 36.0°F
2017-10-18 00:00 39 38 37 95 280° 3 - 30.31 30.30 10 CLR None
2017-10-17 23:00 43 40 40 88 230° 5 - 30.31 30.30 10 CLR None
2017-10-17 22:00 42 40 - 91 - Calm - 30.31 30.30 10 CLR None
2017-10-17 21:00 45 40 44 82 250° 3 - 30.30 30.30 10 CLR None
2017-10-17 20:00 48 43 47 82 190° 3 - 30.29 30.29 10 CLR 6-hr Min Temp (8pm): 48.0°F
6-hr Max Temp (8pm): 61.0°F
2017-10-17 19:00 49 43 47 79 160° 6 - 30.29 30.28 10 CLR None
2017-10-17 18:00 54 42 - 64 150° 7 - 30.27 30.27 10 CLR None
2017-10-17 17:00 59 34 - 38 200° 3 - 30.27 30.27 10 CLR None
2017-10-17 16:00 59 33 - 37 - Calm - 30.27 30.27 10 CLR None
2017-10-17 15:00 59 34 - 38 280° 5 - 30.28 30.28 10 CLR None
2017-10-17 14:00 57 33 - 40 Variable 3 - 30.29 30.29 10 CLR 6-hr Min Temp (2pm): 37.0°F
6-hr Max Temp (2pm): 57.9°F
2017-10-17 13:00 56 34 - 43 Variable 6 - 30.30 30.30 10 CLR None
2017-10-17 12:00 53 33 - 46 320° 6 - 30.33 30.32 10 CLR None
2017-10-17 11:00 52 34 - 50 360° 7 - 30.34 30.34 10 CLR None
2017-10-17 10:00 49 35 45 58 350° 9 - 30.34 30.34 10 CLR None
2017-10-17 09:00 45 36 43 70 340° 5 - 30.34 30.34 10 CLR None
2017-10-17 08:00 37 35 - 92 - Calm - 30.33 30.32 10 CLR 6-hr Min Temp (8am): 33.1°F
6-hr Max Temp (8am): 41.0°F
2017-10-17 07:00 35 33 31 92 320° 5 - 30.31 30.30 10 CLR None
2017-10-17 06:00 34 32 30 92 320° 5 - 30.28 30.28 10 CLR None
2017-10-17 04:00 38 34 - 85 - Calm - 30.25 30.24 10 CLR None

Support USWX by starting your Amazon purchase here.